Time,TemperatureF,DewpointF,PressureIn,WindDirection,WindDirectionDegrees,WindSpeedMPH,WindSpeedGustMPH,Humidity,HourlyPrecipIn,Conditions,Clouds,dailyrainin,SoftwareType,DateUTC
2013-02-16 00:00:00,24.3,19.0,30.52,WNW,295,0.0,0.0,80,0.00,,,0.00,Wunderground v.1.15,2013-02-16 07:00:00,
2013-02-16 00:05:00,24.2,19.2,30.50,WNW,295,0.0,0.0,81,0.00,,,0.00,Wunderground v.1.15,2013-02-16 07:05:00,
2013-02-16 00:15:00,24.3,19.3,30.50,WNW,295,0.0,0.0,81,0.00,,,0.00,Wunderground v.1.15,2013-02-16 07:15:00,
2013-02-16 00:20:00,24.4,19.4,30.50,WNW,295,0.0,0.0,81,0.00,,,0.00,Wunderground v.1.15,2013-02-16 07:20:00,
2013-02-16 00:25:00,24.3,19.3,30.50,WNW,295,0.0,0.0,81,0.00,,,0.00,Wunderground v.1.15,2013-02-16 07:25:00,
2013-02-16 00:30:00,24.0,18.7,30.50,WNW,295,0.0,0.0,80,0.00,,,0.00,Wunderground v.1.15,2013-02-16 07:30:00,
2013-02-16 00:39:00,23.9,18.9,30.50,WNW,295,0.0,0.0,81,0.00,,,0.00,Wunderground v.1.15,2013-02-16 07:39:00,
2013-02-16 00:44:00,24.1,19.4,30.50,WNW,295,0.0,0.0,82,0.00,,,0.00,Wunderground v.1.15,2013-02-16 07:44:00,
2013-02-16 00:49:00,24.0,19.3,30.50,WNW,295,0.0,0.0,82,0.00,,,0.00,Wunderground v.1.15,2013-02-16 07:49:00,
2013-02-16 00:54:00,23.7,18.7,30.50,WNW,295,0.0,0.0,81,0.00,,,0.00,Wunderground v.1.15,2013-02-16 07:54:00,
2013-02-16 00:59:00,23.4,18.4,30.50,WNW,295,0.0,0.0,81,0.00,,,0.00,Wunderground v.1.15,2013-02-16 07:59:00,
2013-02-16 01:05:00,23.2,18.2,30.50,WNW,295,0.0,0.0,81,0.00,,,0.00,Wunderground v.1.15,2013-02-16 08:05:00,
2013-02-16 01:15:00,23.1,18.1,30.50,WNW,295,0.0,0.0,81,0.00,,,0.00,Wunderground v.1.15,2013-02-16 08:15:00,
2013-02-16 01:25:00,23.2,18.5,30.50,WNW,295,0.0,0.0,82,0.00,,,0.00,Wunderground v.1.15,2013-02-16 08:25:00,
2013-02-16 01:30:00,23.1,18.1,30.50,WNW,295,0.0,0.0,81,0.00,,,0.00,Wunderground v.1.15,2013-02-16 08:30:00,
2013-02-16 01:35:00,22.8,17.8,30.50,WNW,295,0.0,0.0,81,0.00,,,0.00,Wunderground v.1.15,2013-02-16 08:35:00,
2013-02-16 01:44:00,22.5,17.8,30.50,WNW,295,0.0,0.0,82,0.00,,,0.00,Wunderground v.1.15,2013-02-16 08:44:00,
2013-02-16 01:49:00,22.0,17.1,30.50,WNW,295,0.0,0.0,81,0.00,,,0.00,Wunderground v.1.15,2013-02-16 08:49:00,
2013-02-16 01:54:00,21.4,16.5,30.50,WNW,295,0.0,0.0,81,0.00,,,0.00,Wunderground v.1.15,2013-02-16 08:54:00,
2013-02-16 01:59:00,21.2,16.3,30.51,WNW,295,0.0,0.0,81,0.00,,,0.00,Wunderground v.1.15,2013-02-16 08:59:00,
2013-02-16 02:05:00,21.2,16.6,30.51,WNW,295,0.0,0.0,82,0.00,,,0.00,Wunderground v.1.15,2013-02-16 09:05:00,
2013-02-16 02:14:00,21.3,16.9,30.51,WNW,295,0.0,0.0,83,0.00,,,0.00,Wunderground v.1.15,2013-02-16 09:14:00,
2013-02-16 02:19:00,21.4,17.0,30.51,WNW,295,0.0,0.0,83,0.00,,,0.00,Wunderground v.1.15,2013-02-16 09:19:00,
2013-02-16 02:25:00,21.8,17.7,30.51,WNW,295,0.0,0.0,84,0.00,,,0.00,Wunderground v.1.15,2013-02-16 09:25:00,
2013-02-16 02:30:00,22.2,18.1,30.51,WNW,295,0.0,0.0,84,0.00,,,0.00,Wunderground v.1.15,2013-02-16 09:30:00,
2013-02-16 02:35:00,22.3,18.2,30.51,WNW,295,0.0,1.0,84,0.00,,,0.00,Wunderground v.1.15,2013-02-16 09:35:00,
2013-02-16 02:45:00,21.5,17.1,30.50,WNW,295,1.0,1.0,83,0.00,,,0.00,Wunderground v.1.15,2013-02-16 09:45:00,
2013-02-16 02:50:00,20.9,16.5,30.51,WNW,295,0.0,0.0,83,0.00,,,0.00,Wunderground v.1.15,2013-02-16 09:50:00,
2013-02-16 02:55:00,20.8,16.5,30.51,WNW,295,0.0,0.0,83,0.00,,,0.00,Wunderground v.1.15,2013-02-16 09:55:00,
2013-02-16 03:00:00,21.0,16.6,30.50,WNW,295,0.0,0.0,83,0.00,,,0.00,Wunderground v.1.15,2013-02-16 10:00:00,
2013-02-16 03:05:00,21.3,17.2,30.50,WNW,295,0.0,0.0,84,0.00,,,0.00,Wunderground v.1.15,2013-02-16 10:05:00,
2013-02-16 03:14:00,20.7,16.4,30.50,WNW,295,0.0,0.0,83,0.00,,,0.00,Wunderground v.1.15,2013-02-16 10:14:00,
2013-02-16 03:19:00,20.6,16.3,30.50,WNW,295,0.0,0.0,83,0.00,,,0.00,Wunderground v.1.15,2013-02-16 10:19:00,
2013-02-16 03:24:00,19.8,15.2,30.51,WNW,295,0.0,0.0,82,0.00,,,0.00,Wunderground v.1.15,2013-02-16 10:24:00,
2013-02-16 03:29:00,19.9,15.6,30.50,WNW,295,0.0,0.0,83,0.00,,,0.00,Wunderground v.1.15,2013-02-16 10:29:00,
2013-02-16 03:34:00,20.2,15.9,30.51,WNW,295,0.0,0.0,83,0.00,,,0.00,Wunderground v.1.15,2013-02-16 10:34:00,
2013-02-16 03:40:00,20.3,16.0,30.50,WNW,295,0.0,0.0,83,0.00,,,0.00,Wunderground v.1.15,2013-02-16 10:40:00,
2013-02-16 03:45:00,20.4,16.1,30.50,WNW,295,1.0,1.0,83,0.00,,,0.00,Wunderground v.1.15,2013-02-16 10:45:00,
2013-02-16 03:55:00,20.0,15.7,30.50,WNW,295,0.0,1.0,83,0.00,,,0.00,Wunderground v.1.15,2013-02-16 10:55:00,
2013-02-16 04:00:00,19.7,15.4,30.50,WNW,295,0.0,0.0,83,0.00,,,0.00,Wunderground v.1.15,2013-02-16 11:00:00,
2013-02-16 04:05:00,19.7,15.4,30.52,WNW,295,0.0,0.0,83,0.00,,,0.00,Wunderground v.1.15,2013-02-16 11:05:00,
2013-02-16 04:15:00,19.7,15.4,30.52,WNW,295,0.0,0.0,83,0.00,,,0.00,Wunderground v.1.15,2013-02-16 11:15:00,
2013-02-16 04:25:00,19.8,15.7,30.52,WNW,295,0.0,0.0,84,0.00,,,0.00,Wunderground v.1.15,2013-02-16 11:25:00,
2013-02-16 04:30:00,20.3,16.2,30.52,WNW,296,0.0,3.0,84,0.00,,,0.00,Wunderground v.1.15,2013-02-16 11:30:00,
2013-02-16 04:35:00,20.3,16.2,30.52,WNW,296,1.0,3.0,84,0.00,,,0.00,Wunderground v.1.15,2013-02-16 11:35:00,
2013-02-16 04:40:00,20.3,16.2,30.52,WNW,295,1.0,1.0,84,0.00,,,0.00,Wunderground v.1.15,2013-02-16 11:40:00,
2013-02-16 04:44:00,20.2,16.1,30.52,WNW,295,0.0,1.0,84,0.00,,,0.00,Wunderground v.1.15,2013-02-16 11:44:00,
2013-02-16 04:54:00,19.7,15.6,30.52,WNW,295,0.0,0.0,84,0.00,,,0.00,Wunderground v.1.15,2013-02-16 11:54:00,
2013-02-16 04:59:00,19.2,14.9,30.53,WNW,296,0.0,0.0,83,0.00,,,0.00,Wunderground v.1.15,2013-02-16 11:59:00,
2013-02-16 05:05:00,19.0,14.7,30.57,SSE,161,0.0,0.0,83,0.00,,,0.00,Wunderground v.1.15,2013-02-16 12:05:00,
2013-02-16 05:14:00,19.0,15.0,30.58,SSE,161,0.0,0.0,84,0.00,,,0.00,Wunderground v.1.15,2013-02-16 12:14:00,
2013-02-16 05:20:00,19.3,15.3,30.57,SSE,161,0.0,0.0,84,0.00,,,0.00,Wunderground v.1.15,2013-02-16 12:20:00,
2013-02-16 05:30:00,19.5,15.5,30.56,SSE,161,0.0,0.0,84,0.00,,,0.00,Wunderground v.1.15,2013-02-16 12:30:00,
2013-02-16 05:35:00,19.4,15.1,30.56,SSE,161,0.0,0.0,83,0.00,,,0.00,Wunderground v.1.15,2013-02-16 12:35:00,
2013-02-16 05:40:00,19.2,14.9,30.58,SSE,162,0.0,0.0,83,0.00,,,0.00,Wunderground v.1.15,2013-02-16 12:40:00,
2013-02-16 05:45:00,19.5,15.5,30.57,SSE,161,0.0,0.0,84,0.00,,,0.00,Wunderground v.1.15,2013-02-16 12:45:00,
2013-02-16 05:50:00,19.5,15.5,30.56,SSE,161,0.0,0.0,84,0.00,,,0.00,Wunderground v.1.15,2013-02-16 12:50:00,
2013-02-16 05:59:00,19.7,15.6,30.56,SSE,161,0.0,0.0,84,0.00,,,0.00,Wunderground v.1.15,2013-02-16 12:59:00,
2013-02-16 06:05:00,19.7,15.6,30.59,SSE,161,0.0,0.0,84,0.00,,,0.00,Wunderground v.1.15,2013-02-16 13:05:00,
2013-02-16 06:14:00,19.5,15.5,30.59,SSE,161,0.0,0.0,84,0.00,,,0.00,Wunderground v.1.15,2013-02-16 13:14:00,
2013-02-16 06:25:00,19.3,15.3,30.58,SSE,162,0.0,0.0,84,0.00,,,0.00,Wunderground v.1.15,2013-02-16 13:25:00,
2013-02-16 06:30:00,19.4,15.4,30.58,SSE,161,0.0,0.0,84,0.00,,,0.00,Wunderground v.1.15,2013-02-16 13:30:00,
2013-02-16 06:35:00,19.2,15.2,30.59,SSE,161,0.0,0.0,84,0.00,,,0.00,Wunderground v.1.15,2013-02-16 13:35:00,
2013-02-16 06:45:00,19.2,15.2,30.59,SSE,162,0.0,0.0,84,0.00,,,0.00,Wunderground v.1.15,2013-02-16 13:45:00,
2013-02-16 06:50:00,19.4,17.5,30.59,SSE,162,0.0,0.0,92,0.00,,,0.00,Wunderground v.1.15,2013-02-16 13:50:00,
2013-02-16 07:00:00,19.7,15.9,30.59,SSE,161,1.0,2.0,85,0.00,,,0.00,Wunderground v.1.15,2013-02-16 14:00:00,
2013-02-16 07:05:00,19.7,15.9,30.60,SSE,161,1.0,2.0,85,0.00,,,0.00,Wunderground v.1.15,2013-02-16 14:05:00,
2013-02-16 07:15:00,18.6,14.6,30.61,SSE,161,0.0,0.0,84,0.00,,,0.00,Wunderground v.1.15,2013-02-16 14:15:00,
2013-02-16 07:20:00,18.8,14.8,30.61,SSE,161,0.0,0.0,84,0.00,,,0.00,Wunderground v.1.15,2013-02-16 14:20:00,
2013-02-16 07:25:00,19.0,15.2,30.61,SSE,162,0.0,0.0,85,0.00,,,0.00,Wunderground v.1.15,2013-02-16 14:25:00,
2013-02-16 07:35:00,19.7,15.9,30.61,SSE,162,0.0,0.0,85,0.00,,,0.00,Wunderground v.1.15,2013-02-16 14:35:00,
2013-02-16 07:40:00,19.7,15.9,30.61,SSE,162,0.0,0.0,85,0.00,,,0.00,Wunderground v.1.15,2013-02-16 14:40:00,
2013-02-16 07:45:00,20.0,16.2,30.61,SSE,162,0.0,0.0,85,0.00,,,0.00,Wunderground v.1.15,2013-02-16 14:45:00,
2013-02-16 07:49:00,20.3,16.5,30.61,SSE,162,0.0,0.0,85,0.00,,,0.00,Wunderground v.1.15,2013-02-16 14:49:00,
2013-02-16 07:54:00,20.4,16.6,30.61,SSE,161,0.0,0.0,85,0.00,,,0.00,Wunderground v.1.15,2013-02-16 14:54:00,
2013-02-16 08:05:00,21.1,17.6,30.62,SSE,161,0.0,0.0,86,0.00,,,0.00,Wunderground v.1.15,2013-02-16 15:05:00,
2013-02-16 08:15:00,23.3,19.7,30.61,SSE,162,0.0,0.0,86,0.00,,,0.00,Wunderground v.1.15,2013-02-16 15:15:00,
2013-02-16 08:20:00,24.9,21.6,30.60,SSE,162,0.0,0.0,87,0.00,,,0.00,Wunderground v.1.15,2013-02-16 15:20:00,
2013-02-16 08:25:00,26.1,22.5,30.60,ENE,76,1.0,2.0,86,0.00,,,0.00,Wunderground v.1.15,2013-02-16 15:25:00,
2013-02-16 08:35:00,28.3,23.5,30.59,East,96,3.0,4.0,82,0.00,,,0.00,Wunderground v.1.15,2013-02-16 15:35:00,
2013-02-16 08:40:00,29.6,23.3,30.58,East,99,2.0,4.0,77,0.00,,,0.00,Wunderground v.1.15,2013-02-16 15:40:00,
2013-02-16 08:45:00,30.5,22.2,30.58,East,101,3.0,4.0,71,0.00,,,0.00,Wunderground v.1.15,2013-02-16 15:45:00,
2013-02-16 08:50:00,30.8,21.1,30.57,ESE,105,4.0,4.0,67,0.00,,,0.00,Wunderground v.1.15,2013-02-16 15:50:00,
2013-02-16 09:00:00,30.9,19.4,30.57,East,101,5.0,6.0,62,0.00,,,0.00,Wunderground v.1.15,2013-02-16 16:00:00,
2013-02-16 09:05:00,31.0,19.5,30.59,ENE,75,5.0,6.0,62,0.00,,,0.00,Wunderground v.1.15,2013-02-16 16:05:00,
2013-02-16 09:14:00,31.6,20.1,30.57,East,91,4.0,4.0,62,0.00,,,0.00,Wunderground v.1.15,2013-02-16 16:14:00,
2013-02-16 09:19:00,32.2,19.9,30.57,ENE,75,4.0,5.0,60,0.00,,,0.00,Wunderground v.1.15,2013-02-16 16:19:00,
2013-02-16 09:24:00,32.6,19.8,30.57,ESE,104,4.0,5.0,59,0.00,,,0.00,Wunderground v.1.15,2013-02-16 16:24:00,
2013-02-16 09:29:00,33.3,19.7,30.57,ENE,57,4.0,4.0,57,0.00,,,0.00,Wunderground v.1.15,2013-02-16 16:29:00,
2013-02-16 09:35:00,33.8,19.7,30.55,East,92,4.0,6.0,56,0.00,,,0.00,Wunderground v.1.15,2013-02-16 16:35:00,
2013-02-16 09:40:00,34.4,19.9,30.55,ESE,106,5.0,5.0,55,0.00,,,0.00,Wunderground v.1.15,2013-02-16 16:40:00,
2013-02-16 09:45:00,35.2,19.8,30.55,ESE,111,4.0,5.0,53,0.00,,,0.00,Wunderground v.1.15,2013-02-16 16:45:00,
2013-02-16 09:50:00,35.6,19.2,30.54,NE,53,4.0,5.0,51,0.00,,,0.00,Wunderground v.1.15,2013-02-16 16:50:00,
2013-02-16 09:55:00,36.1,20.2,30.54,ESE,106,4.0,5.0,52,0.00,,,0.00,Wunderground v.1.15,2013-02-16 16:55:00,
2013-02-16 10:00:00,36.6,19.7,30.54,East,90,4.0,5.0,50,0.00,,,0.00,Wunderground v.1.15,2013-02-16 17:00:00,
2013-02-16 10:05:00,37.0,19.6,30.55,ENE,72,5.0,8.0,49,0.00,,,0.00,Wunderground v.1.15,2013-02-16 17:05:00,
2013-02-16 10:15:00,37.1,18.2,30.55,ESE,117,6.0,6.0,46,0.00,,,0.00,Wunderground v.1.15,2013-02-16 17:15:00,
2013-02-16 10:20:00,37.3,18.9,30.54,ENE,71,6.0,9.0,47,0.00,,,0.00,Wunderground v.1.15,2013-02-16 17:20:00,
2013-02-16 10:24:00,37.6,19.2,30.53,ENE,74,6.0,9.0,47,0.00,,,0.00,Wunderground v.1.15,2013-02-16 17:24:00,
2013-02-16 10:29:00,38.4,19.4,30.53,ESE,122,5.0,5.0,46,0.00,,,0.00,Wunderground v.1.15,2013-02-16 17:29:00,
2013-02-16 10:34:00,39.1,19.0,30.53,East,94,5.0,7.0,44,0.00,,,0.00,Wunderground v.1.15,2013-02-16 17:34:00,
2013-02-16 10:40:00,38.8,18.7,30.53,ESE,103,5.0,5.0,44,0.00,,,0.00,Wunderground v.1.15,2013-02-16 17:40:00,
2013-02-16 10:45:00,39.4,19.3,30.53,ESE,111,4.0,5.0,44,0.00,,,0.00,Wunderground v.1.15,2013-02-16 17:45:00,
2013-02-16 10:55:00,40.5,18.6,30.51,ESE,107,5.0,10.0,41,0.00,,,0.00,Wunderground v.1.15,2013-02-16 17:55:00,
2013-02-16 11:00:00,41.0,19.1,30.51,ESE,117,5.0,5.0,41,0.00,,,0.00,Wunderground v.1.15,2013-02-16 18:00:00,
2013-02-16 11:05:00,41.5,18.9,30.51,ESE,119,5.0,5.0,40,0.00,,,0.00,Wunderground v.1.15,2013-02-16 18:05:00,
2013-02-16 11:15:00,42.2,19.0,30.50,ESE,112,5.0,5.0,39,0.00,,,0.00,Wunderground v.1.15,2013-02-16 18:15:00,
2013-02-16 11:20:00,42.5,18.6,30.50,East,86,5.0,7.0,38,0.00,,,0.00,Wunderground v.1.15,2013-02-16 18:20:00,
2013-02-16 11:25:00,42.7,18.8,30.50,East,92,5.0,7.0,38,0.00,,,0.00,Wunderground v.1.15,2013-02-16 18:25:00,
2013-02-16 11:30:00,42.9,19.6,30.50,SSE,148,5.0,5.0,39,0.00,,,0.00,Wunderground v.1.15,2013-02-16 18:30:00,
2013-02-16 11:39:00,43.8,19.8,30.48,SSE,155,4.0,4.0,38,0.00,,,0.00,Wunderground v.1.15,2013-02-16 18:39:00,
2013-02-16 11:44:00,43.8,19.2,30.48,East,98,3.0,7.0,37,0.00,,,0.00,Wunderground v.1.15,2013-02-16 18:44:00,
2013-02-16 11:49:00,44.0,19.4,30.47,SE,128,4.0,4.0,37,0.00,,,0.00,Wunderground v.1.15,2013-02-16 18:49:00,
2013-02-16 11:55:00,43.8,19.2,30.47,ESE,107,4.0,5.0,37,0.00,,,0.00,Wunderground v.1.15,2013-02-16 18:55:00,
2013-02-16 12:05:00,44.5,19.8,30.46,ESE,111,4.0,4.0,37,0.00,,,0.00,Wunderground v.1.15,2013-02-16 19:05:00,
2013-02-16 12:15:00,44.7,20.0,30.45,SSE,167,4.0,6.0,37,0.00,,,0.00,Wunderground v.1.15,2013-02-16 19:15:00,
2013-02-16 12:20:00,45.4,20.6,30.45,South,180,4.0,4.0,37,0.00,,,0.00,Wunderground v.1.15,2013-02-16 19:20:00,
2013-02-16 12:25:00,45.3,19.9,30.44,ESE,103,4.0,4.0,36,0.00,,,0.00,Wunderground v.1.15,2013-02-16 19:25:00,
2013-02-16 12:30:00,45.7,19.6,30.44,ESE,122,3.0,3.0,35,0.00,,,0.00,Wunderground v.1.15,2013-02-16 19:30:00,
2013-02-16 12:35:00,45.9,19.8,30.43,SE,138,3.0,3.0,35,0.00,,,0.00,Wunderground v.1.15,2013-02-16 19:35:00,
2013-02-16 12:40:00,46.0,20.5,30.43,SSW,194,3.0,6.0,36,0.00,,,0.00,Wunderground v.1.15,2013-02-16 19:40:00,
2013-02-16 12:49:00,46.1,19.9,30.42,ENE,69,3.0,3.0,35,0.00,,,0.00,Wunderground v.1.15,2013-02-16 19:49:00,
2013-02-16 12:54:00,46.7,19.8,30.41,ESE,115,2.0,4.0,34,0.00,,,0.00,Wunderground v.1.15,2013-02-16 19:54:00,
2013-02-16 12:59:00,47.2,20.9,30.40,ESE,117,2.0,2.0,35,0.00,,,0.00,Wunderground v.1.15,2013-02-16 19:59:00,
2013-02-16 13:05:00,47.9,20.8,30.41,ESE,113,1.0,2.0,34,0.00,,,0.00,Wunderground v.1.15,2013-02-16 20:05:00,
2013-02-16 13:15:00,48.3,20.5,30.40,ENE,59,1.0,2.0,33,0.00,,,0.00,Wunderground v.1.15,2013-02-16 20:15:00,
2013-02-16 13:20:00,48.4,20.6,30.40,ENE,73,1.0,1.0,33,0.00,,,0.00,Wunderground v.1.15,2013-02-16 20:20:00,
2013-02-16 13:25:00,48.1,20.3,30.39,ENE,57,1.0,2.0,33,0.00,,,0.00,Wunderground v.1.15,2013-02-16 20:25:00,
2013-02-16 13:30:00,47.8,20.8,30.39,NNW,336,1.0,1.0,34,0.00,,,0.00,Wunderground v.1.15,2013-02-16 20:30:00,
2013-02-16 13:35:00,47.8,20.1,30.39,NE,51,1.0,2.0,33,0.00,,,0.00,Wunderground v.1.15,2013-02-16 20:35:00,
2013-02-16 13:45:00,47.3,20.3,30.38,NNE,30,3.0,4.0,34,0.00,,,0.00,Wunderground v.1.15,2013-02-16 20:45:00,
2013-02-16 13:50:00,46.9,20.0,30.38,NE,54,3.0,3.0,34,0.00,,,0.00,Wunderground v.1.15,2013-02-16 20:50:00,
2013-02-16 13:55:00,47.3,21.0,30.37,NNW,344,2.0,4.0,35,0.00,,,0.00,Wunderground v.1.15,2013-02-16 20:55:00,
2013-02-16 13:59:00,48.1,21.0,30.37,WNW,298,2.0,2.0,34,0.00,,,0.00,Wunderground v.1.15,2013-02-16 20:59:00,
2013-02-16 14:05:00,48.6,21.5,30.35,WSW,242,2.0,2.0,34,0.00,,,0.00,Wunderground v.1.15,2013-02-16 21:05:00,
2013-02-16 14:14:00,48.3,21.2,30.36,WSW,256,2.0,5.0,34,0.00,,,0.00,Wunderground v.1.15,2013-02-16 21:14:00,
2013-02-16 14:25:00,48.5,22.1,30.34,NNE,17,2.0,4.0,35,0.00,,,0.00,Wunderground v.1.15,2013-02-16 21:25:00,
2013-02-16 14:30:00,49.1,23.3,30.34,NNW,330,1.0,1.0,36,0.00,,,0.00,Wunderground v.1.15,2013-02-16 21:30:00,
2013-02-16 14:40:00,50.0,22.7,30.33,WNW,292,2.0,2.0,34,0.00,,,0.00,Wunderground v.1.15,2013-02-16 21:40:00,
2013-02-16 14:45:00,49.7,22.4,30.33,West,273,2.0,3.0,34,0.00,,,0.00,Wunderground v.1.15,2013-02-16 21:45:00,
2013-02-16 14:55:00,49.8,23.9,30.33,SW,225,2.0,6.0,36,0.00,,,0.00,Wunderground v.1.15,2013-02-16 21:55:00,
2013-02-16 15:00:00,50.3,23.7,30.33,NNE,32,2.0,2.0,35,0.00,,,0.00,Wunderground v.1.15,2013-02-16 22:00:00,
2013-02-16 15:05:00,50.4,23.1,30.32,North,355,2.0,2.0,34,0.00,,,0.00,Wunderground v.1.15,2013-02-16 22:05:00,
2013-02-16 15:15:00,50.4,23.1,30.32,NNE,13,1.0,1.0,34,0.00,,,0.00,Wunderground v.1.15,2013-02-16 22:15:00,
2013-02-16 15:24:00,50.7,24.0,30.32,WSW,240,1.0,1.0,35,0.00,,,0.00,Wunderground v.1.15,2013-02-16 22:24:00,
2013-02-16 15:29:00,51.0,23.6,30.32,NW,324,1.0,1.0,34,0.00,,,0.00,Wunderground v.1.15,2013-02-16 22:29:00,
2013-02-16 15:34:00,51.0,23.6,30.31,West,259,1.0,1.0,34,0.00,,,0.00,Wunderground v.1.15,2013-02-16 22:34:00,
2013-02-16 15:44:00,49.9,22.6,30.31,West,280,2.0,5.0,34,0.00,,,0.00,Wunderground v.1.15,2013-02-16 22:44:00,
2013-02-16 15:49:00,49.8,23.2,30.31,WNW,290,2.0,3.0,35,0.00,,,0.00,Wunderground v.1.15,2013-02-16 22:49:00,
2013-02-16 15:55:00,49.9,23.3,30.30,West,260,2.0,3.0,35,0.00,,,0.00,Wunderground v.1.15,2013-02-16 22:55:00,
2013-02-16 16:00:00,50.0,23.4,30.30,West,272,2.0,2.0,35,0.00,,,0.00,Wunderground v.1.15,2013-02-16 23:00:00,
2013-02-16 16:05:00,50.1,24.2,30.31,NW,309,2.0,2.0,36,0.00,,,0.00,Wunderground v.1.15,2013-02-16 23:05:00,
2013-02-16 16:15:00,50.4,23.7,30.31,NNW,335,2.0,3.0,35,0.00,,,0.00,Wunderground v.1.15,2013-02-16 23:15:00,
2013-02-16 16:20:00,50.5,23.8,30.29,SSW,207,2.0,2.0,35,0.00,,,0.00,Wunderground v.1.15,2013-02-16 23:20:00,
2013-02-16 16:30:00,50.8,23.4,30.29,NNW,334,1.0,1.0,34,0.00,,,0.00,Wunderground v.1.15,2013-02-16 23:30:00,
2013-02-16 16:35:00,50.8,23.4,30.29,NNE,19,1.0,2.0,34,0.00,,,0.00,Wunderground v.1.15,2013-02-16 23:35:00,
2013-02-16 16:40:00,50.2,23.6,30.30,NW,311,1.0,1.0,35,0.00,,,0.00,Wunderground v.1.15,2013-02-16 23:40:00,
2013-02-16 16:44:00,50.3,23.0,30.30,NW,309,1.0,1.0,34,0.00,,,0.00,Wunderground v.1.15,2013-02-16 23:44:00,
2013-02-16 16:49:00,50.3,23.7,30.29,West,269,0.0,0.0,35,0.00,,,0.00,Wunderground v.1.15,2013-02-16 23:49:00,
2013-02-16 16:55:00,50.4,23.7,30.29,WNW,296,0.0,0.0,35,0.00,,,0.00,Wunderground v.1.15,2013-02-16 23:55:00,
2013-02-16 17:00:00,50.5,23.8,30.28,NW,309,1.0,2.0,35,0.00,,,0.00,Wunderground v.1.15,2013-02-17 00:00:00,
2013-02-16 17:05:00,50.5,23.8,30.27,NNE,24,1.0,2.0,35,0.00,,,0.00,Wunderground v.1.15,2013-02-17 00:05:00,
2013-02-16 17:15:00,49.7,23.1,30.27,North,5,0.0,1.0,35,0.00,,,0.00,Wunderground v.1.15,2013-02-17 00:15:00,
2013-02-16 17:20:00,49.5,23.6,30.27,North,5,0.0,0.0,36,0.00,,,0.00,Wunderground v.1.15,2013-02-17 00:20:00,
2013-02-16 17:30:00,48.7,22.9,30.27,North,5,0.0,0.0,36,0.00,,,0.00,Wunderground v.1.15,2013-02-17 00:30:00,
2013-02-16 17:35:00,48.2,23.1,30.28,North,5,0.0,0.0,37,0.00,,,0.00,Wunderground v.1.15,2013-02-17 00:35:00,
2013-02-16 17:40:00,47.7,22.0,30.27,North,360,0.0,0.0,36,0.00,,,0.00,Wunderground v.1.15,2013-02-17 00:40:00,
2013-02-16 17:45:00,47.1,22.1,30.28,North,360,0.0,0.0,37,0.00,,,0.00,Wunderground v.1.15,2013-02-17 00:45:00,
2013-02-16 17:55:00,46.1,22.5,30.28,North,5,0.0,0.0,39,0.00,,,0.00,Wunderground v.1.15,2013-02-17 00:55:00,
2013-02-16 18:05:00,45.0,22.1,30.29,North,5,0.0,0.0,40,0.00,,,0.00,Wunderground v.1.15,2013-02-17 01:05:00,
2013-02-16 18:14:00,43.8,22.2,30.29,North,360,0.0,2.0,42,0.00,,,0.00,Wunderground v.1.15,2013-02-17 01:14:00,
2013-02-16 18:19:00,42.8,21.8,30.30,North,5,0.0,0.0,43,0.00,,,0.00,Wunderground v.1.15,2013-02-17 01:19:00,
2013-02-16 18:24:00,41.0,21.8,30.31,North,5,0.0,0.0,46,0.00,,,0.00,Wunderground v.1.15,2013-02-17 01:24:00,
2013-02-16 18:30:00,39.7,22.1,30.31,North,5,0.0,0.0,49,0.00,,,0.00,Wunderground v.1.15,2013-02-17 01:30:00,
2013-02-16 18:35:00,38.9,22.3,30.32,North,5,0.0,0.0,51,0.00,,,0.00,Wunderground v.1.15,2013-02-17 01:35:00,
2013-02-16 18:40:00,38.4,22.3,30.32,North,5,0.0,0.0,52,0.00,,,0.00,Wunderground v.1.15,2013-02-17 01:40:00,
2013-02-16 18:45:00,38.0,22.4,30.32,North,5,0.0,0.0,53,0.00,,,0.00,Wunderground v.1.15,2013-02-17 01:45:00,
2013-02-16 18:50:00,37.7,22.1,30.32,North,360,0.0,0.0,53,0.00,,,0.00,Wunderground v.1.15,2013-02-17 01:50:00,
2013-02-16 18:55:00,37.3,22.2,30.33,North,5,0.0,0.0,54,0.00,,,0.00,Wunderground v.1.15,2013-02-17 01:55:00,
2013-02-16 19:05:00,36.2,22.0,30.32,North,5,0.0,0.0,56,0.00,,,0.00,Wunderground v.1.15,2013-02-17 02:05:00,
2013-02-16 19:15:00,35.5,23.4,30.32,North,5,0.0,0.0,61,0.00,,,0.00,Wunderground v.1.15,2013-02-17 02:15:00,
2013-02-16 19:20:00,35.3,22.0,30.32,North,360,0.0,0.0,58,0.00,,,0.00,Wunderground v.1.15,2013-02-17 02:20:00,
2013-02-16 19:25:00,35.0,21.7,30.32,North,360,0.0,0.0,58,0.00,,,0.00,Wunderground v.1.15,2013-02-17 02:25:00,
2013-02-16 19:30:00,34.7,21.8,30.32,North,360,0.0,0.0,59,0.00,,,0.00,Wunderground v.1.15,2013-02-17 02:30:00,
2013-02-16 19:39:00,34.2,21.7,30.33,North,11,1.0,1.0,60,0.00,,,0.00,Wunderground v.1.15,2013-02-17 02:39:00,
2013-02-16 19:44:00,33.5,21.5,30.33,North,11,1.0,1.0,61,0.00,,,0.00,Wunderground v.1.15,2013-02-17 02:44:00,
2013-02-16 19:49:00,33.2,21.6,30.33,North,11,0.0,0.0,62,0.00,,,0.00,Wunderground v.1.15,2013-02-17 02:49:00,
2013-02-16 19:54:00,33.0,21.4,30.33,North,11,0.0,0.0,62,0.00,,,0.00,Wunderground v.1.15,2013-02-17 02:54:00,
2013-02-16 20:00:00,32.6,21.0,30.33,North,11,0.0,0.0,62,0.00,,,0.00,Wunderground v.1.15,2013-02-17 03:00:00,
2013-02-16 20:05:00,32.1,21.3,30.28,North,11,0.0,0.0,64,0.00,,,0.00,Wunderground v.1.15,2013-02-17 03:05:00,
2013-02-16 20:15:00,31.1,20.7,30.28,North,11,0.0,0.0,65,0.00,,,0.00,Wunderground v.1.15,2013-02-17 03:15:00,
2013-02-16 20:20:00,30.7,20.7,30.28,North,11,0.0,0.0,66,0.00,,,0.00,Wunderground v.1.15,2013-02-17 03:20:00,
2013-02-16 20:25:00,30.5,20.8,30.28,North,11,0.0,0.0,67,0.00,,,0.00,Wunderground v.1.15,2013-02-17 03:25:00,
2013-02-16 20:30:00,30.3,20.6,30.29,North,11,0.0,0.0,67,0.00,,,0.00,Wunderground v.1.15,2013-02-17 03:30:00,
2013-02-16 20:40:00,28.6,19.4,30.29,North,11,0.0,0.0,68,0.00,,,0.00,Wunderground v.1.15,2013-02-17 03:40:00,
2013-02-16 20:45:00,28.0,19.5,30.30,North,11,0.0,0.0,70,0.00,,,0.00,Wunderground v.1.15,2013-02-17 03:45:00,
2013-02-16 20:49:00,27.8,19.9,30.30,North,11,0.0,0.0,72,0.00,,,0.00,Wunderground v.1.15,2013-02-17 03:49:00,
2013-02-16 20:54:00,27.8,20.3,30.30,North,11,0.0,0.0,73,0.00,,,0.00,Wunderground v.1.15,2013-02-17 03:54:00,
2013-02-16 20:59:00,27.9,21.0,30.30,North,11,0.0,0.0,75,0.00,,,0.00,Wunderground v.1.15,2013-02-17 03:59:00,
2013-02-16 21:05:00,28.2,21.3,30.27,North,11,0.0,0.0,75,0.00,,,0.00,Wunderground v.1.15,2013-02-17 04:05:00,
2013-02-16 21:10:00,28.5,21.6,30.26,North,11,0.0,0.0,75,0.00,,,0.00,Wunderground v.1.15,2013-02-17 04:10:00,
2013-02-16 21:15:00,28.6,21.7,30.26,North,11,0.0,0.0,75,0.00,,,0.00,Wunderground v.1.15,2013-02-17 04:15:00,
2013-02-16 21:20:00,28.6,21.4,30.26,North,11,0.0,0.0,74,0.00,,,0.00,Wunderground v.1.15,2013-02-17 04:20:00,
2013-02-16 21:25:00,28.6,21.4,30.26,North,11,0.0,0.0,74,0.00,,,0.00,Wunderground v.1.15,2013-02-17 04:25:00,
2013-02-16 21:30:00,28.3,20.7,30.27,North,11,0.0,0.0,73,0.00,,,0.00,Wunderground v.1.15,2013-02-17 04:30:00,
2013-02-16 21:35:00,28.2,21.0,30.27,North,11,0.0,0.0,74,0.00,,,0.00,Wunderground v.1.15,2013-02-17 04:35:00,
2013-02-16 21:45:00,27.5,20.3,30.27,North,11,0.0,0.0,74,0.00,,,0.00,Wunderground v.1.15,2013-02-17 04:45:00,
2013-02-16 21:50:00,27.0,19.8,30.27,North,11,0.0,0.0,74,0.00,,,0.00,Wunderground v.1.15,2013-02-17 04:50:00,
2013-02-16 21:55:00,26.7,19.8,30.27,North,11,0.0,0.0,75,0.00,,,0.00,Wunderground v.1.15,2013-02-17 04:55:00,
2013-02-16 22:00:00,26.6,20.1,30.27,North,11,0.0,0.0,76,0.00,,,0.00,Wunderground v.1.15,2013-02-17 05:00:00,
2013-02-16 22:05:00,26.6,20.4,30.24,North,11,0.0,0.0,77,0.00,,,0.00,Wunderground v.1.15,2013-02-17 05:05:00,
2013-02-16 22:14:00,26.3,20.1,30.24,North,11,0.0,0.0,77,0.00,,,0.00,Wunderground v.1.15,2013-02-17 05:14:00,
2013-02-16 22:19:00,26.1,19.9,30.24,North,11,0.0,0.0,77,0.00,,,0.00,Wunderground v.1.15,2013-02-17 05:19:00,
2013-02-16 22:24:00,26.0,19.8,30.24,North,11,0.0,0.0,77,0.00,,,0.00,Wunderground v.1.15,2013-02-17 05:24:00,
2013-02-16 22:29:00,26.1,20.2,30.24,North,11,0.0,0.0,78,0.00,,,0.00,Wunderground v.1.15,2013-02-17 05:29:00,
2013-02-16 22:35:00,26.2,20.0,30.23,North,11,0.0,0.0,77,0.00,,,0.00,Wunderground v.1.15,2013-02-17 05:35:00,
2013-02-16 22:40:00,26.1,19.9,30.23,North,11,0.0,0.0,77,0.00,,,0.00,Wunderground v.1.15,2013-02-17 05:40:00,
2013-02-16 22:50:00,26.0,19.8,30.22,North,11,0.0,0.0,77,0.00,,,0.00,Wunderground v.1.15,2013-02-17 05:50:00,
2013-02-16 22:55:00,25.9,19.7,30.22,North,11,0.0,0.0,77,0.00,,,0.00,Wunderground v.1.15,2013-02-17 05:55:00,
2013-02-16 23:00:00,25.7,19.5,30.22,North,11,0.0,0.0,77,0.00,,,0.00,Wunderground v.1.15,2013-02-17 06:00:00,
2013-02-16 23:05:00,25.4,19.5,30.22,North,11,0.0,2.0,78,0.00,,,0.00,Wunderground v.1.15,2013-02-17 06:05:00,
2013-02-16 23:15:00,25.2,19.3,30.22,North,11,1.0,2.0,78,0.00,,,0.00,Wunderground v.1.15,2013-02-17 06:15:00,
2013-02-16 23:24:00,24.7,18.8,30.21,North,11,0.0,0.0,78,0.00,,,0.00,Wunderground v.1.15,2013-02-17 06:24:00,
2013-02-16 23:29:00,24.2,18.3,30.21,North,11,0.0,0.0,78,0.00,,,0.00,Wunderground v.1.15,2013-02-17 06:29:00,
2013-02-16 23:34:00,24.2,18.6,30.22,North,11,0.0,0.0,79,0.00,,,0.00,Wunderground v.1.15,2013-02-17 06:34:00,
2013-02-16 23:45:00,24.5,19.2,30.21,North,11,0.0,0.0,80,0.00,,,0.00,Wunderground v.1.15,2013-02-17 06:45:00,
2013-02-16 23:50:00,24.5,19.2,30.21,North,11,0.0,0.0,80,0.00,,,0.00,Wunderground v.1.15,2013-02-17 06:50:00,
2013-02-16 23:55:00,24.4,19.1,30.21,North,11,0.0,0.0,80,0.00,,,0.00,Wunderground v.1.15,2013-02-17 06:55:00,